Time;durP1;ratioP1;P1;durP2;ratioP2;P2;SDS_P1;SDS_P2;PMS_P1;PMS_P2;Temp;Humidity;BMP_temperature;BMP_pressure;BME280_temperature;BME280_humidity;BME280_pressure;Samples;Min_cycle;Max_cycle;Signal;HPM_P1;HPM_P2
2023/09/02 00:00:10;;;;;;;6.13;3.80;;;14.90;99.90;;;;;;5039475;28;20267;-79
2023/09/02 00:02:38;;;;;;;5.93;3.67;;;15.00;99.90;;;;;;5039036;28;20305;-79
2023/09/02 00:05:06;;;;;;;5.18;3.97;;;15.00;99.90;;;;;;5039002;28;20214;-78
2023/09/02 00:07:32;;;;;;;4.40;3.78;;;15.00;99.90;;;;;;5039595;28;20682;-79
2023/09/02 00:09:59;;;;;;;5.00;3.95;;;15.00;99.90;;;;;;5037061;28;20255;-78
2023/09/02 00:12:26;;;;;;;4.10;3.72;;;15.00;99.90;;;;;;5048242;28;20192;-78
2023/09/02 00:14:53;;;;;;;6.85;4.70;;;15.00;99.90;;;;;;5028173;28;20211;-78
2023/09/02 00:17:20;;;;;;;5.50;4.40;;;15.00;99.90;;;;;;5029907;28;20198;-77
2023/09/02 00:19:48;;;;;;;5.45;4.43;;;15.10;99.90;;;;;;5042730;28;20243;-78
2023/09/02 00:22:15;;;;;;;5.00;4.45;;;15.10;99.90;;;;;;5038016;28;20219;-80
2023/09/02 00:24:41;;;;;;;5.25;4.70;;;15.00;99.90;;;;;;5038954;28;20682;-78
2023/09/02 00:27:08;;;;;;;6.50;4.43;;;15.00;99.90;;;;;;5038900;28;20294;-78
2023/09/02 00:29:35;;;;;;;8.98;5.70;;;15.00;99.90;;;;;;5037558;28;20214;-78
2023/09/02 00:32:02;;;;;;;7.03;5.50;;;15.10;99.90;;;;;;5038782;28;20208;-78
2023/09/02 00:34:28;;;;;;;5.25;4.75;;;15.00;99.90;;;;;;5038921;28;20212;-78
2023/09/02 00:36:57;;;;;;;8.48;5.68;;;15.00;99.90;;;;;;5038531;28;20644;-79
2023/09/02 00:39:23;;;;;;;7.55;5.47;;;15.00;99.90;;;;;;5038474;28;20204;-79
2023/09/02 00:41:54;;;;;;;6.60;5.18;;;15.10;99.90;;;;;;5038098;28;20230;-78
2023/09/02 00:44:20;;;;;;;7.82;5.82;;;15.10;99.90;;;;;;5038471;28;20283;-78
2023/09/02 00:46:48;;;;;;;8.02;5.88;;;15.10;99.90;;;;;;5039316;28;20199;-79
2023/09/02 00:49:15;;;;;;;8.10;6.25;;;15.00;99.90;;;;;;5038134;28;20196;-79
2023/09/02 00:51:42;;;;;;;6.70;5.55;;;15.00;99.90;;;;;;5032180;28;20685;-80
2023/09/02 00:54:10;;;;;;;7.00;5.95;;;15.00;99.90;;;;;;5037978;28;20219;-78
2023/09/02 00:56:38;;;;;;;9.27;6.18;;;14.90;99.90;;;;;;5037245;28;20215;-78
2023/09/02 00:59:05;;;;;;;6.30;5.70;;;14.90;99.90;;;;;;5037503;28;20226;-79
2023/09/02 01:01:35;;;;;;;8.00;5.78;;;14.90;99.90;;;;;;5032795;28;20216;-79
2023/09/02 01:04:04;;;;;;;7.90;5.47;;;14.80;99.90;;;;;;5029749;28;20295;-79
2023/09/02 01:06:31;;;;;;;4.95;4.45;;;14.80;99.90;;;;;;5025532;28;20200;-78
2023/09/02 01:08:58;;;;;;;5.57;4.63;;;14.80;99.90;;;;;;5038473;28;20219;-79
2023/09/02 01:11:26;;;;;;;4.80;4.28;;;14.90;99.90;;;;;;5037708;28;20226;-79
2023/09/02 01:13:53;;;;;;;4.25;3.85;;;14.90;99.90;;;;;;5037496;28;20200;-78
2023/09/02 01:16:20;;;;;;;5.00;4.50;;;14.80;99.90;;;;;;5038139;28;20210;-80
2023/09/02 01:18:47;;;;;;;8.65;5.25;;;14.80;99.90;;;;;;5037643;28;20271;-78
2023/09/02 01:21:50;;;;;;;8.75;5.63;;;14.80;99.90;;;;;;5037657;28;20688;-79
2023/09/02 01:24:52;;;;;;;7.28;5.53;;;14.80;99.90;;;;;;5028885;28;20687;-78
2023/09/02 01:27:25;;;;;;;7.43;5.03;;;14.60;99.90;;;;;;5038685;28;20211;-78
2023/09/02 01:29:57;;;;;;;7.60;4.83;;;14.70;99.90;;;;;;5038064;28;20322;-79
2023/09/02 01:32:29;;;;;;;7.60;5.60;;;14.60;99.90;;;;;;5039252;28;20267;-79
2023/09/02 01:34:58;;;;;;;6.65;5.18;;;14.60;99.90;;;;;;5038014;28;20706;-79
2023/09/02 01:37:26;;;;;;;7.05;5.35;;;14.60;99.90;;;;;;5037741;28;20584;-80
2023/09/02 01:39:57;;;;;;;7.40;5.38;;;14.60;99.90;;;;;;5037625;28;20259;-78
2023/09/02 01:42:25;;;;;;;9.30;6.03;;;14.50;99.90;;;;;;5037699;28;20250;-79
2023/09/02 01:44:52;;;;;;;7.28;5.40;;;14.50;99.90;;;;;;5029950;28;20634;-78
2023/09/02 01:47:19;;;;;;;10.27;6.63;;;14.50;99.90;;;;;;5021525;28;20202;-79
2023/09/02 01:49:47;;;;;;;7.55;5.93;;;14.40;99.90;;;;;;5036194;28;20219;-79
2023/09/02 01:52:16;;;;;;;9.38;5.82;;;14.40;99.90;;;;;;5036512;28;20200;-79
2023/09/02 01:54:43;;;;;;;8.38;6.13;;;14.40;99.90;;;;;;5037084;28;20200;-78
2023/09/02 01:57:10;;;;;;;8.05;6.10;;;14.30;99.90;;;;;;5037517;28;20200;-78
2023/09/02 01:59:38;;;;;;;9.55;6.38;;;14.40;99.90;;;;;;5036242;28;20299;-77
2023/09/02 02:02:05;;;;;;;12.75;7.05;;;14.40;99.90;;;;;;5038075;28;20222;-78
2023/09/02 02:04:35;;;;;;;7.75;6.10;;;14.40;99.90;;;;;;5037505;28;20210;-78
2023/09/02 02:07:08;;;;;;;9.35;6.40;;;14.50;99.90;;;;;;5037450;28;20585;-78
2023/09/02 02:09:40;;;;;;;8.68;6.35;;;14.40;99.90;;;;;;5029767;28;20216;-79
2023/09/02 02:12:08;;;;;;;9.57;6.68;;;14.50;99.90;;;;;;5022813;28;20633;-79
2023/09/02 02:14:35;;;;;;;10.45;6.70;;;14.40;99.90;;;;;;5031985;28;20204;-78
2023/09/02 02:17:05;;;;;;;11.05;7.25;;;14.40;99.90;;;;;;5028578;28;20294;-79
2023/09/02 02:19:32;;;;;;;11.32;7.28;;;14.30;99.90;;;;;;5029534;28;20211;-79
2023/09/02 02:21:59;;;;;;;13.82;7.05;;;14.20;99.90;;;;;;5029941;28;20203;-78
2023/09/02 02:24:26;;;;;;;11.50;7.35;;;14.20;99.90;;;;;;5035934;28;20656;-80
2023/09/02 02:26:53;;;;;;;11.27;6.93;;;14.20;99.90;;;;;;5035157;28;20563;-81
2023/09/02 02:29:20;;;;;;;13.32;7.53;;;14.20;99.90;;;;;;5030991;28;20212;-79
2023/09/02 02:31:46;;;;;;;13.27;7.82;;;14.20;99.90;;;;;;5031402;28;20192;-79
2023/09/02 02:34:14;;;;;;;9.77;7.38;;;14.10;99.90;;;;;;5036835;28;20227;-80
2023/09/02 02:36:41;;;;;;;8.95;6.65;;;14.20;99.90;;;;;;5024310;28;20198;-79
2023/09/02 02:39:09;;;;;;;9.20;6.47;;;14.20;99.90;;;;;;5036441;28;20211;-80
2023/09/02 02:41:36;;;;;;;10.60;7.07;;;14.20;99.90;;;;;;5037100;28;20223;-80
2023/09/02 02:44:04;;;;;;;9.93;7.20;;;14.30;99.90;;;;;;5037195;28;20849;-79
2023/09/02 02:46:31;;;;;;;11.05;7.53;;;14.30;99.90;;;;;;5036819;28;20262;-79
2023/09/02 02:48:57;;;;;;;9.77;7.03;;;14.30;99.90;;;;;;5016900;28;20208;-80
2023/09/02 02:51:25;;;;;;;11.90;8.27;;;14.30;99.90;;;;;;5022345;28;20220;-80
2023/09/02 02:53:52;;;;;;;9.40;7.03;;;14.30;99.90;;;;;;5037041;28;20214;-79
2023/09/02 02:56:20;;;;;;;12.13;7.63;;;14.30;99.90;;;;;;5037010;28;20233;-79
2023/09/02 02:58:46;;;;;;;9.40;6.93;;;14.30;99.90;;;;;;5036486;28;20207;-80
2023/09/02 03:01:13;;;;;;;9.65;7.10;;;14.20;99.90;;;;;;5036420;28;20306;-80
2023/09/02 03:03:41;;;;;;;10.23;6.82;;;14.30;99.90;;;;;;5036982;28;20584;-80
2023/09/02 03:06:08;;;;;;;9.68;6.93;;;14.30;99.90;;;;;;5034450;28;20290;-80
2023/09/02 03:08:36;;;;;;;8.85;6.68;;;14.30;99.90;;;;;;5036454;28;20195;-80
2023/09/02 03:11:05;;;;;;;9.65;6.60;;;14.40;99.90;;;;;;5028478;28;20219;-79
2023/09/02 03:13:33;;;;;;;8.35;6.25;;;14.30;99.90;;;;;;5024770;28;20190;-80
2023/09/02 03:16:01;;;;;;;7.88;6.10;;;14.40;99.90;;;;;;5036501;28;20572;-80
2023/09/02 03:18:29;;;;;;;7.88;5.82;;;14.30;99.90;;;;;;5036286;28;20210;-79
2023/09/02 03:21:02;;;;;;;8.75;6.32;;;14.30;99.90;;;;;;5036186;28;20221;-81
2023/09/02 03:23:28;;;;;;;8.75;5.80;;;14.30;99.90;;;;;;5035704;28;20215;-81
2023/09/02 03:25:57;;;;;;;7.50;5.63;;;14.20;99.90;;;;;;5036260;28;20656;-80
2023/09/02 03:28:23;;;;;;;8.05;5.55;;;14.20;99.90;;;;;;5036411;28;20675;-80
2023/09/02 03:30:50;;;;;;;8.35;5.82;;;14.20;99.90;;;;;;5035712;28;20311;-80
2023/09/02 03:33:17;;;;;;;8.50;6.10;;;14.20;99.90;;;;;;5036644;28;20228;-80
2023/09/02 03:35:44;;;;;;;9.10;5.75;;;14.20;99.90;;;;;;5036849;28;20719;-79
2023/09/02 03:38:11;;;;;;;8.50;5.60;;;14.20;99.90;;;;;;5037117;28;20782;-79
2023/09/02 03:40:38;;;;;;;6.93;5.30;;;14.10;99.90;;;;;;5036532;28;20231;-79
2023/09/02 03:43:06;;;;;;;8.88;6.60;;;14.10;99.90;;;;;;5037252;28;20294;-81
2023/09/02 03:45:33;;;;;;;9.57;7.22;;;14.10;99.90;;;;;;5032580;28;20206;-79
2023/09/02 03:48:00;;;;;;;9.70;7.63;;;14.10;99.90;;;;;;5031724;28;20204;-78
2023/09/02 03:50:27;;;;;;;9.30;7.15;;;14.00;99.90;;;;;;5035509;28;20219;-78
2023/09/02 03:52:54;;;;;;;7.65;6.22;;;14.10;99.90;;;;;;5029290;28;20631;-78
2023/09/02 03:55:21;;;;;;;8.10;5.78;;;14.20;99.90;;;;;;5023966;28;20213;-79
2023/09/02 03:57:47;;;;;;;6.47;5.40;;;14.20;99.90;;;;;;5036748;28;20202;-77
2023/09/02 04:00:17;;;;;;;7.65;5.85;;;14.10;99.90;;;;;;5036231;28;20691;-77
2023/09/02 04:02:44;;;;;;;7.18;6.30;;;14.10;99.90;;;;;;5036694;28;20235;-78
2023/09/02 04:05:11;;;;;;;4.60;4.10;;;14.10;99.90;;;;;;5036752;28;20267;-78
2023/09/02 04:07:38;;;;;;;12.07;10.70;;;14.00;99.90;;;;;;5036299;28;20231;-78
2023/09/02 04:10:06;;;;;;;12.30;11.10;;;13.90;99.90;;;;;;5035811;28;20215;-79
2023/09/02 04:12:34;;;;;;;14.02;12.63;;;14.00;99.90;;;;;;5035774;28;20210;-79
2023/09/02 04:15:01;;;;;;;6.93;6.22;;;14.10;99.90;;;;;;5036267;28;20211;-78
2023/09/02 04:17:29;;;;;;;5.75;5.15;;;14.10;99.90;;;;;;5036276;28;20299;-78
2023/09/02 04:19:56;;;;;;;6.35;4.40;;;14.00;99.90;;;;;;5036051;28;20228;-78
2023/09/02 04:22:23;;;;;;;4.90;3.85;;;14.00;99.90;;;;;;5035905;28;20196;-78
2023/09/02 04:24:50;;;;;;;4.65;3.42;;;13.90;99.90;;;;;;5033594;28;20728;-78
2023/09/02 04:27:16;;;;;;;6.20;5.60;;;13.90;99.90;;;;;;5031461;28;20200;-80
2023/09/02 04:29:43;;;;;;;10.77;6.38;;;13.90;99.90;;;;;;5033361;28;20220;-79
2023/09/02 04:32:11;;;;;;;8.68;7.88;;;13.90;99.90;;;;;;5028663;28;20204;-79
2023/09/02 04:34:39;;;;;;;10.63;9.50;;;14.10;99.90;;;;;;5034657;28;20192;-79
2023/09/02 04:37:05;;;;;;;8.13;6.80;;;14.00;99.90;;;;;;5035656;28;20192;-80
2023/09/02 04:39:32;;;;;;;8.05;5.55;;;14.00;99.90;;;;;;5029606;28;20201;-79
2023/09/02 04:41:59;;;;;;;6.95;5.15;;;14.00;99.90;;;;;;5031201;28;20200;-78
2023/09/02 04:44:26;;;;;;;4.72;4.30;;;14.00;99.90;;;;;;5025577;28;20223;-80
2023/09/02 04:46:52;;;;;;;5.72;4.38;;;14.00;99.90;;;;;;5024595;28;20202;-81
2023/09/02 04:49:19;;;;;;;4.68;3.65;;;14.10;99.90;;;;;;5039886;28;20204;-79
2023/09/02 04:51:49;;;;;;;5.38;3.60;;;14.10;99.90;;;;;;5045048;28;20199;-81
2023/09/02 04:54:15;;;;;;;3.80;3.20;;;14.20;99.90;;;;;;5036349;28;20582;-79
2023/09/02 04:56:42;;;;;;;4.30;3.90;;;14.30;99.90;;;;;;5030364;28;20196;-80
2023/09/02 04:59:09;;;;;;;4.55;3.40;;;14.30;99.90;;;;;;5036272;28;20214;-80
2023/09/02 05:01:36;;;;;;;3.83;3.53;;;14.40;99.90;;;;;;5038111;28;20225;-80
2023/09/02 05:04:03;;;;;;;3.78;2.92;;;14.40;99.90;;;;;;5042818;28;20694;-80
2023/09/02 05:06:30;;;;;;;8.80;4.22;;;14.40;99.90;;;;;;5040086;28;20217;-80
2023/09/02 05:08:58;;;;;;;4.60;4.05;;;14.40;99.90;;;;;;5035004;28;20295;-81
2023/09/02 05:11:25;;;;;;;5.60;4.40;;;14.40;99.90;;;;;;5043157;28;20314;-81
2023/09/02 05:13:52;;;;;;;4.28;3.88;;;14.40;99.90;;;;;;5036359;28;20253;-81
2023/09/02 05:16:19;;;;;;;7.30;5.82;;;14.40;99.90;;;;;;5041624;28;20570;-80
2023/09/02 05:18:46;;;;;;;7.57;4.90;;;14.50;99.90;;;;;;5036449;28;20200;-80
2023/09/02 05:21:13;;;;;;;5.95;4.82;;;14.50;99.90;;;;;;5044074;28;20233;-79
2023/09/02 05:23:39;;;;;;;6.38;4.93;;;14.50;99.90;;;;;;5034903;28;20224;-82
2023/09/02 05:26:08;;;;;;;5.35;4.60;;;14.60;99.90;;;;;;5034637;28;20222;-80
2023/09/02 05:28:34;;;;;;;6.35;4.90;;;14.70;99.90;;;;;;5027234;28;20208;-80
2023/09/02 05:31:02;;;;;;;5.57;4.35;;;14.70;99.90;;;;;;5031361;28;20225;-80
2023/09/02 05:33:32;;;;;;;7.80;5.50;;;14.70;99.90;;;;;;5028363;28;20215;-81
2023/09/02 05:35:58;;;;;;;8.52;5.70;;;14.70;99.90;;;;;;5033162;28;20231;-80
2023/09/02 05:38:25;;;;;;;7.45;5.43;;;14.70;99.90;;;;;;5045475;28;20211;-80
2023/09/02 05:40:52;;;;;;;7.45;5.32;;;14.70;99.90;;;;;;5040464;28;20227;-80
2023/09/02 05:43:21;;;;;;;5.60;5.00;;;14.80;99.90;;;;;;5034546;28;20231;-79
2023/09/02 05:45:48;;;;;;;6.97;5.43;;;14.80;99.90;;;;;;5035819;28;20254;-79
2023/09/02 05:48:16;;;;;;;7.00;5.10;;;14.90;99.90;;;;;;5026507;28;20204;-79
2023/09/02 05:50:43;;;;;;;7.00;5.40;;;15.00;99.90;;;;;;5038150;28;20224;-81
2023/09/02 05:53:10;;;;;;;7.15;5.45;;;15.00;99.90;;;;;;5026977;28;20691;-80
2023/09/02 05:55:37;;;;;;;7.53;5.07;;;15.10;99.90;;;;;;5032858;28;20637;-79
2023/09/02 05:58:04;;;;;;;8.88;6.18;;;15.20;99.90;;;;;;5034345;28;20635;-81
2023/09/02 06:00:32;;;;;;;7.18;5.60;;;15.30;99.90;;;;;;5039010;28;20228;-79
2023/09/02 06:02:59;;;;;;;8.02;5.22;;;15.40;99.90;;;;;;5035840;28;20200;-79
2023/09/02 06:05:25;;;;;;;9.45;6.50;;;15.40;99.90;;;;;;5028639;28;20207;-80
2023/09/02 06:07:56;;;;;;;6.28;5.15;;;15.40;99.90;;;;;;5038264;28;20199;-78
2023/09/02 06:10:22;;;;;;;9.32;5.13;;;15.40;99.90;;;;;;5036367;28;20637;-80
2023/09/02 06:12:49;;;;;;;6.10;4.82;;;15.40;99.90;;;;;;5028085;28;20226;-79
2023/09/02 06:15:16;;;;;;;6.68;4.80;;;15.40;99.90;;;;;;5034836;28;20286;-80
2023/09/02 06:17:44;;;;;;;5.28;4.53;;;15.40;99.90;;;;;;5039752;28;20238;-83
2023/09/02 06:20:15;;;;;;;6.60;4.65;;;15.60;99.90;;;;;;5030917;28;20258;-79
2023/09/02 06:22:42;;;;;;;9.13;4.85;;;15.80;99.90;;;;;;5041907;28;20203;-79
2023/09/02 06:25:09;;;;;;;6.95;4.40;;;15.90;99.90;;;;;;5031071;28;20240;-80
2023/09/02 06:27:36;;;;;;;5.82;5.05;;;16.10;99.90;;;;;;5033064;28;20230;-80
2023/09/02 06:30:03;;;;;;;6.90;4.70;;;16.20;99.90;;;;;;5028747;28;20227;-79
2023/09/02 06:32:30;;;;;;;6.32;4.93;;;16.30;99.90;;;;;;5035243;28;20200;-80
2023/09/02 06:34:58;;;;;;;6.05;4.97;;;16.30;99.90;;;;;;5034358;28;20199;-80
2023/09/02 06:37:28;;;;;;;5.57;4.93;;;16.40;99.90;;;;;;5034601;28;20200;-79
2023/09/02 06:39:55;;;;;;;7.05;5.50;;;16.40;99.90;;;;;;5035343;28;20238;-79
2023/09/02 06:42:23;;;;;;;7.68;6.30;;;16.30;99.90;;;;;;5034889;28;20214;-80
2023/09/02 06:44:53;;;;;;;7.15;5.50;;;16.40;99.90;;;;;;5035257;28;20227;-80
2023/09/02 06:47:20;;;;;;;7.13;5.80;;;16.50;99.90;;;;;;5036000;28;20208;-79
2023/09/02 06:49:47;;;;;;;7.22;6.35;;;16.60;99.90;;;;;;5035323;28;20219;-80
2023/09/02 06:52:15;;;;;;;5.63;5.00;;;16.60;99.90;;;;;;5035503;28;20565;-80
2023/09/02 06:54:42;;;;;;;9.02;7.47;;;16.70;99.90;;;;;;5035502;28;20206;-79
2023/09/02 06:57:09;;;;;;;9.85;7.68;;;16.80;99.90;;;;;;5035845;28;20207;-79
2023/09/02 06:59:36;;;;;;;12.82;10.25;;;16.80;99.90;;;;;;5034674;28;20199;-80
2023/09/02 07:02:03;;;;;;;8.15;6.68;;;16.90;99.90;;;;;;5034887;28;20211;-80
2023/09/02 07:04:30;;;;;;;8.15;6.63;;;17.00;99.90;;;;;;5034364;28;20699;-80
2023/09/02 07:06:57;;;;;;;9.35;6.95;;;17.10;99.90;;;;;;5034495;28;20199;-78
2023/09/02 07:09:25;;;;;;;8.18;6.20;;;17.20;99.90;;;;;;5035267;28;20195;-80
2023/09/02 07:11:52;;;;;;;8.10;5.68;;;17.20;99.90;;;;;;5036442;28;20204;-80
2023/09/02 07:14:19;;;;;;;7.35;6.07;;;17.30;99.90;;;;;;5037116;28;20204;-80
2023/09/02 07:16:46;;;;;;;6.72;5.45;;;17.30;99.90;;;;;;5036448;28;20687;-80
2023/09/02 07:19:13;;;;;;;8.07;5.63;;;17.10;99.90;;;;;;5036885;28;20209;-78
2023/09/02 07:21:40;;;;;;;8.30;6.60;;;17.10;99.90;;;;;;5036355;28;20226;-80
2023/09/02 07:24:08;;;;;;;7.78;5.72;;;17.30;99.90;;;;;;5035381;28;20227;-79
2023/09/02 07:26:36;;;;;;;6.47;5.50;;;17.30;99.90;;;;;;5036586;28;20204;-79
2023/09/02 07:29:03;;;;;;;8.05;5.90;;;17.40;99.90;;;;;;5037152;28;20214;-79
2023/09/02 07:31:30;;;;;;;8.88;6.00;;;17.50;99.90;;;;;;5036342;28;20228;-79
2023/09/02 07:33:57;;;;;;;10.65;7.38;;;17.40;99.90;;;;;;5036460;28;20199;-80
2023/09/02 07:36:24;;;;;;;9.02;6.78;;;17.40;99.90;;;;;;5036564;28;20695;-79
2023/09/02 07:38:51;;;;;;;11.20;7.38;;;17.50;99.90;;;;;;5036378;28;20226;-79
2023/09/02 07:41:17;;;;;;;7.65;6.68;;;17.60;99.90;;;;;;5036512;28;20230;-79
2023/09/02 07:43:45;;;;;;;8.55;6.65;;;17.70;99.90;;;;;;5035947;28;20227;-79
2023/09/02 07:46:12;;;;;;;8.38;6.68;;;17.80;99.90;;;;;;5035958;28;20581;-79
2023/09/02 07:48:39;;;;;;;9.23;7.03;;;17.80;99.90;;;;;;5036053;28;20211;-79
2023/09/02 07:51:06;;;;;;;10.38;7.53;;;17.90;99.90;;;;;;5035468;28;20219;-79
2023/09/02 07:53:32;;;;;;;9.65;7.13;;;18.00;99.90;;;;;;5035366;28;20200;-80
2023/09/02 07:55:59;;;;;;;9.95;7.05;;;18.00;99.90;;;;;;5035458;28;20199;-79
2023/09/02 07:58:26;;;;;;;10.02;6.80;;;18.10;99.90;;;;;;5035293;28;20294;-79
2023/09/02 08:00:56;;;;;;;12.38;7.88;;;18.20;99.90;;;;;;5035740;28;20228;-79
2023/09/02 08:03:23;;;;;;;9.55;7.32;;;18.20;99.90;;;;;;5037256;28;20561;-80
2023/09/02 08:05:50;;;;;;;10.10;7.38;;;18.10;99.90;;;;;;5036660;28;20230;-80
2023/09/02 08:08:17;;;;;;;8.75;6.45;;;18.10;99.90;;;;;;5036482;28;20203;-79
2023/09/02 08:10:44;;;;;;;10.43;7.22;;;18.20;99.90;;;;;;5039757;28;20223;-78
2023/09/02 08:13:11;;;;;;;9.50;7.43;;;18.40;99.90;;;;;;5038282;28;20382;-80
2023/09/02 08:15:38;;;;;;;9.63;6.72;;;18.40;99.90;;;;;;5043473;28;20704;-79
2023/09/02 08:18:06;;;;;;;8.50;6.00;;;18.70;99.90;;;;;;5056831;28;20199;-80
2023/09/02 08:20:33;;;;;;;10.32;6.80;;;18.90;99.90;;;;;;5058781;28;20719;-80
2023/09/02 08:23:00;;;;;;;9.80;6.88;;;19.20;99.90;;;;;;5049197;28;20310;-79
2023/09/02 08:25:27;;;;;;;9.15;7.38;;;19.10;99.90;;;;;;5038866;28;20223;-80
2023/09/02 08:27:54;;;;;;;9.68;7.50;;;19.20;99.90;;;;;;5037593;28;20603;-82
2023/09/02 08:30:21;;;;;;;11.05;7.38;;;18.70;99.90;;;;;;5038206;28;20227;-80
2023/09/02 08:32:47;;;;;;;8.48;6.47;;;18.70;99.90;;;;;;5038170;28;20208;-79
2023/09/02 08:35:16;;;;;;;8.93;6.65;;;19.00;99.90;;;;;;5036642;28;20207;-80
2023/09/02 08:37:42;;;;;;;8.05;6.28;;;19.00;99.90;;;;;;5037464;28;20218;-79
2023/09/02 08:40:10;;;;;;;7.63;6.25;;;19.00;99.90;;;;;;5037881;28;20247;-79
2023/09/02 08:42:36;;;;;;;9.02;6.93;;;19.10;99.90;;;;;;5038156;28;20204;-79
2023/09/02 08:45:08;;;;;;;7.82;6.30;;;19.10;99.90;;;;;;5035034;28;20220;-80
2023/09/02 08:47:38;;;;;;;7.18;5.60;;;19.20;99.90;;;;;;5025879;28;20211;-79
2023/09/02 08:50:07;;;;;;;7.20;5.88;;;19.40;99.90;;;;;;5037708;28;20215;-79
2023/09/02 08:52:36;;;;;;;8.35;6.72;;;19.50;99.90;;;;;;5037883;28;20368;-80
2023/09/02 08:55:04;;;;;;;9.10;6.22;;;19.40;99.90;;;;;;5038541;28;20212;-79
2023/09/02 08:57:31;;;;;;;7.57;5.47;;;19.70;99.90;;;;;;5039078;28;20218;-79
2023/09/02 08:59:58;;;;;;;5.97;4.90;;;19.70;99.90;;;;;;5037670;28;20230;-80
2023/09/02 09:02:26;;;;;;;7.10;5.57;;;19.60;99.90;;;;;;5038594;28;20213;-79
2023/09/02 09:04:53;;;;;;;6.78;5.53;;;19.80;99.90;;;;;;5037210;28;20314;-78
2023/09/02 09:07:21;;;;;;;6.93;5.43;;;19.70;99.90;;;;;;5034337;28;20242;-79
2023/09/02 09:09:49;;;;;;;6.05;5.22;;;19.70;99.90;;;;;;5028231;28;20734;-79
2023/09/02 09:12:20;;;;;;;7.20;6.07;;;19.60;99.90;;;;;;5037792;28;20579;-79
2023/09/02 09:14:52;;;;;;;6.32;5.60;;;19.60;99.90;;;;;;5038852;28;20196;-78
2023/09/02 09:17:19;;;;;;;6.78;5.03;;;19.60;99.90;;;;;;5039435;28;20213;-79
2023/09/02 09:19:46;;;;;;;7.30;5.95;;;19.70;99.90;;;;;;5035242;28;20597;-79
2023/09/02 09:22:13;;;;;;;8.85;6.25;;;19.70;99.90;;;;;;5038024;28;20298;-80
2023/09/02 09:24:39;;;;;;;6.45;5.13;;;20.00;99.90;;;;;;5038260;28;20219;-80
2023/09/02 09:27:09;;;;;;;7.95;5.72;;;20.30;99.90;;;;;;5038249;28;20206;-79
2023/09/02 09:29:41;;;;;;;5.95;5.07;;;20.40;99.90;;;;;;5037277;28;20209;-79
2023/09/02 09:32:10;;;;;;;7.22;5.53;;;20.40;99.90;;;;;;5037754;28;20207;-79
2023/09/02 09:34:37;;;;;;;8.10;6.03;;;20.30;99.90;;;;;;5038045;28;20200;-80
2023/09/02 09:37:04;;;;;;;7.32;5.35;;;20.30;99.90;;;;;;5037946;28;20204;-79
2023/09/02 09:39:43;;;;;;;6.30;5.65;;;20.20;99.90;;;;;;5038208;28;20219;-79
2023/09/02 09:42:12;;;;;;;6.10;4.90;;;20.20;99.90;;;;;;5037091;28;20200;-79
2023/09/02 09:44:53;;;;;;;7.10;5.93;;;20.10;99.90;;;;;;5038157;28;20219;-79
2023/09/02 09:47:21;;;;;;;9.90;5.40;;;20.10;99.90;;;;;;5032315;28;20239;-79
2023/09/02 09:49:49;;;;;;;8.88;7.68;;;20.30;99.90;;;;;;5053421;28;20241;-81
2023/09/02 09:52:17;;;;;;;10.23;7.88;;;20.10;99.90;;;;;;5055739;28;20260;-80
2023/09/02 09:54:47;;;;;;;10.80;8.45;;;20.30;99.90;;;;;;5048060;28;20196;-80
2023/09/02 09:57:17;;;;;;;9.63;8.63;;;20.50;99.90;;;;;;5036844;28;20207;-80
2023/09/02 09:59:51;;;;;;;10.23;9.10;;;20.40;99.90;;;;;;5036914;28;20258;-80
2023/09/02 10:02:20;;;;;;;10.45;8.60;;;20.30;99.90;;;;;;5036603;28;20222;-80
2023/09/02 10:04:52;;;;;;;9.00;7.70;;;20.40;99.90;;;;;;5037080;28;20223;-79
2023/09/02 10:07:23;;;;;;;8.70;7.80;;;20.30;99.90;;;;;;5036829;28;20234;-80
2023/09/02 10:09:50;;;;;;;9.13;8.18;;;20.30;99.90;;;;;;5030830;28;20219;-79
2023/09/02 10:12:18;;;;;;;7.80;6.75;;;20.40;99.90;;;;;;5036158;28;20686;-79
2023/09/02 10:14:46;;;;;;;9.63;7.07;;;20.70;99.90;;;;;;5036363;28;20555;-80
2023/09/02 10:17:13;;;;;;;8.65;6.80;;;20.60;99.90;;;;;;5036322;28;20687;-80
2023/09/02 10:19:41;;;;;;;8.25;6.50;;;20.70;99.90;;;;;;5035343;28;20338;-80
2023/09/02 10:22:18;;;;;;;8.20;6.28;;;21.00;99.90;;;;;;5028519;28;20291;-80
2023/09/02 10:24:49;;;;;;;9.77;7.03;;;21.70;99.90;;;;;;5032571;28;20224;-80
2023/09/02 10:27:22;;;;;;;7.85;6.70;;;21.40;99.90;;;;;;5020481;28;20227;-79
2023/09/02 10:29:55;;;;;;;7.53;5.40;;;21.00;99.90;;;;;;5027445;28;20223;-80
2023/09/02 10:32:27;;;;;;;5.85;5.25;;;21.20;99.90;;;;;;5029728;28;20196;-80
2023/09/02 10:35:04;;;;;;;6.72;5.60;;;21.50;99.90;;;;;;5036098;28;20944;-80
2023/09/02 10:37:41;;;;;;;5.43;4.68;;;21.70;99.90;;;;;;5036050;28;20289;-79
2023/09/02 10:40:11;;;;;;;5.03;4.03;;;21.50;99.90;;;;;;5035151;28;20227;-80
2023/09/02 10:42:39;;;;;;;4.18;3.78;;;22.20;99.90;;;;;;5032648;28;20193;-79
2023/09/02 10:45:07;;;;;;;5.85;4.22;;;22.50;99.90;;;;;;5027288;28;21199;-80
2023/09/02 10:47:36;;;;;;;3.67;3.38;;;22.20;99.90;;;;;;5035842;28;20217;-80
2023/09/02 10:50:04;;;;;;;3.63;3.30;;;22.70;99.90;;;;;;5035656;28;20227;-80
2023/09/02 10:52:31;;;;;;;3.85;3.45;;;22.40;99.90;;;;;;5032156;28;20608;-80
2023/09/02 10:55:02;;;;;;;4.68;3.35;;;22.30;99.90;;;;;;5035367;28;20200;-79
2023/09/02 10:57:44;;;;;;;4.15;3.67;;;22.40;99.90;;;;;;5032694;28;20211;-80
2023/09/02 11:00:20;;;;;;;4.00;3.60;;;22.20;99.90;;;;;;5036054;28;20219;-79
2023/09/02 11:02:51;;;;;;;4.95;4.00;;;22.20;99.90;;;;;;5044563;28;20285;-79
2023/09/02 11:05:19;;;;;;;4.80;3.78;;;22.40;99.90;;;;;;5029854;28;20273;-79
2023/09/02 11:07:47;;;;;;;4.38;3.35;;;22.40;99.90;;;;;;5036201;28;20222;-79
2023/09/02 11:10:14;;;;;;;4.50;3.30;;;22.60;99.90;;;;;;5031758;28;20773;-80
2023/09/02 11:13:04;;;;;;;3.85;3.30;;;22.60;99.90;;;;;;5037080;28;20231;-79
2023/09/02 11:15:33;;;;;;;2.95;2.72;;;22.30;99.90;;;;;;5032142;28;20192;-79
2023/09/02 11:18:28;;;;;;;3.40;2.97;;;22.60;99.90;;;;;;5032890;28;20241;-79
2023/09/02 11:20:55;;;;;;;3.10;2.80;;;22.40;99.90;;;;;;5026121;28;20273;-79
2023/09/02 11:23:22;;;;;;;3.35;3.05;;;22.50;99.90;;;;;;5032559;28;20210;-79
2023/09/02 11:26:01;;;;;;;3.75;3.35;;;22.50;99.90;;;;;;5032334;28;20587;-79
2023/09/02 11:28:29;;;;;;;3.50;3.20;;;22.40;99.90;;;;;;5027265;28;20200;-80
2023/09/02 11:31:08;;;;;;;3.53;3.05;;;22.50;99.90;;;;;;5026221;28;20246;-79
2023/09/02 11:33:36;;;;;;;3.25;2.95;;;22.50;99.90;;;;;;5031624;28;20203;-79
2023/09/02 11:36:06;;;;;;;3.47;3.17;;;22.50;99.90;;;;;;5029146;28;20200;-80
2023/09/02 11:38:34;;;;;;;3.67;3.38;;;22.60;99.90;;;;;;5028562;28;20210;-80
2023/09/02 11:41:01;;;;;;;2.88;2.67;;;22.60;99.90;;;;;;5031378;28;20227;-80
2023/09/02 11:43:31;;;;;;;4.28;2.97;;;22.80;99.90;;;;;;5040816;28;20856;-80
2023/09/02 11:45:59;;;;;;;3.42;3.08;;;22.60;99.90;;;;;;5037842;28;20805;-80
2023/09/02 11:48:28;;;;;;;3.50;2.60;;;22.30;99.90;;;;;;5037257;28;20196;-80
2023/09/02 11:50:58;;;;;;;3.47;3.17;;;22.50;99.90;;;;;;5035939;28;20254;-80
2023/09/02 11:53:26;;;;;;;4.65;3.00;;;23.10;99.90;;;;;;5035100;28;20210;-81
2023/09/02 11:55:52;;;;;;;4.53;3.95;;;23.30;99.90;;;;;;5039611;28;20214;-81
2023/09/02 11:58:20;;;;;;;5.78;4.22;;;23.10;99.90;;;;;;5031140;28;20214;-79
2023/09/02 12:00:47;;;;;;;5.75;4.38;;;22.80;99.90;;;;;;5044632;28;20223;-80
2023/09/02 12:03:24;;;;;;;6.60;5.35;;;22.90;99.90;;;;;;5035084;28;20208;-78
2023/09/02 12:05:54;;;;;;;8.15;6.20;;;23.10;99.90;;;;;;5034264;28;20715;-78
2023/09/02 12:08:21;;;;;;;6.25;5.30;;;22.40;99.90;;;;;;5039604;28;20207;-81
2023/09/02 12:10:48;;;;;;;7.82;4.70;;;22.70;99.90;;;;;;5041097;28;20215;-79
2023/09/02 12:13:16;;;;;;;5.97;4.68;;;23.40;99.90;;;;;;5031538;28;20233;-81
2023/09/02 12:15:47;;;;;;;6.53;4.63;;;23.50;99.90;;;;;;5045956;28;20667;-79
2023/09/02 12:18:14;;;;;;;6.22;5.40;;;23.20;99.90;;;;;;5048496;28;20255;-79
2023/09/02 12:20:42;;;;;;;6.78;5.10;;;23.00;99.90;;;;;;5043054;28;20242;-78
2023/09/02 12:23:10;;;;;;;6.55;4.90;;;23.10;99.90;;;;;;5034105;28;20204;-79
2023/09/02 12:25:38;;;;;;;4.40;4.00;;;23.70;99.90;;;;;;5046660;28;20223;-79
2023/09/02 12:28:12;;;;;;;6.68;5.28;;;23.80;99.90;;;;;;5037644;28;20294;-79
2023/09/02 12:30:40;;;;;;;5.43;4.53;;;23.70;99.90;;;;;;5034768;28;20216;-79
2023/09/02 12:33:07;;;;;;;5.68;4.70;;;23.50;99.90;;;;;;5045664;28;20204;-79
2023/09/02 12:35:35;;;;;;;5.00;4.13;;;23.20;99.90;;;;;;5035039;28;20200;-79
2023/09/02 12:38:03;;;;;;;5.10;4.45;;;23.60;99.90;;;;;;5031789;28;20200;-80
2023/09/02 12:40:32;;;;;;;6.70;4.65;;;23.60;99.90;;;;;;5046236;28;20281;-79
2023/09/02 12:42:59;;;;;;;7.13;5.18;;;23.10;99.90;;;;;;5039015;28;20203;-79
2023/09/02 12:45:30;;;;;;;5.45;4.47;;;23.00;99.90;;;;;;5039073;28;20683;-80
2023/09/02 12:47:59;;;;;;;5.18;3.97;;;23.00;99.90;;;;;;5028433;28;20575;-79
2023/09/02 12:50:27;;;;;;;5.90;5.13;;;23.30;99.90;;;;;;5049269;28;20306;-79